createdAt,value
2023-02-11T00:00:23.250Z,26.70
2023-02-11T00:01:23.265Z,27.40
2023-02-11T00:02:23.269Z,25.40
2023-02-11T00:03:23.293Z,24.80
2023-02-11T00:04:23.217Z,25.90
2023-02-11T00:05:23.168Z,25.00
2023-02-11T00:06:23.153Z,26.40
2023-02-11T00:07:23.144Z,25.20
2023-02-11T00:08:23.151Z,26.00
2023-02-11T00:09:23.120Z,25.50
2023-02-11T00:10:23.105Z,25.30
2023-02-11T00:11:23.090Z,26.90
2023-02-11T00:12:23.071Z,26.60
2023-02-11T00:13:23.058Z,25.10
2023-02-11T00:14:23.058Z,26.90
2023-02-11T00:15:23.046Z,25.30
2023-02-11T00:16:23.048Z,27.00
2023-02-11T00:17:23.002Z,24.90
2023-02-11T00:18:23.063Z,26.60
2023-02-11T00:19:22.990Z,26.20
2023-02-11T00:20:22.972Z,26.60
2023-02-11T00:21:22.963Z,25.60
2023-02-11T00:22:22.943Z,26.40
2023-02-11T00:23:22.930Z,26.20
2023-02-11T00:24:22.938Z,26.20
2023-02-11T00:25:22.912Z,25.40
2023-02-11T00:26:22.920Z,27.00
2023-02-11T00:27:22.874Z,25.70
2023-02-11T00:28:22.975Z,26.40
2023-02-11T00:29:22.853Z,27.30
2023-02-11T00:30:22.849Z,26.30
2023-02-11T00:31:22.998Z,25.40
2023-02-11T00:32:22.805Z,26.60
2023-02-11T00:33:22.803Z,25.90
2023-02-11T00:34:22.797Z,25.10
2023-02-11T00:35:22.777Z,25.60
2023-02-11T00:36:22.757Z,26.40
2023-02-11T00:37:22.747Z,25.30
2023-02-11T00:38:22.726Z,25.20
2023-02-11T00:39:22.728Z,26.30
2023-02-11T00:40:22.698Z,25.30
2023-02-11T00:41:22.681Z,26.20
2023-02-11T00:42:22.676Z,24.20
2023-02-11T00:43:22.656Z,25.20
2023-02-11T00:44:22.674Z,25.40
2023-02-11T00:45:22.648Z,25.00
2023-02-11T00:46:22.675Z,24.50
2023-02-11T00:47:22.596Z,25.60
2023-02-11T00:48:22.586Z,24.30
2023-02-11T00:49:22.596Z,24.20
2023-02-11T00:50:22.590Z,24.70
2023-02-11T00:51:22.562Z,23.40
2023-02-11T00:52:22.544Z,25.40
2023-02-11T00:53:22.524Z,25.50
2023-02-11T00:54:22.517Z,25.00
2023-02-11T00:55:22.521Z,25.10
2023-02-11T00:56:22.476Z,24.70
2023-02-11T00:57:22.491Z,25.20
2023-02-11T00:58:22.509Z,25.00
2023-02-11T00:59:22.457Z,24.80
2023-02-11T01:00:22.462Z,23.90
2023-02-11T01:01:22.474Z,23.90
2023-02-11T01:02:22.434Z,24.50
2023-02-11T01:03:22.457Z,24.10
2023-02-11T01:04:22.463Z,24.60
2023-02-11T01:05:22.397Z,24.90
2023-02-11T01:06:22.365Z,24.00
2023-02-11T01:07:22.338Z,24.00
2023-02-11T01:08:22.322Z,24.10
2023-02-11T01:09:22.321Z,24.80
2023-02-11T01:10:22.311Z,23.30
2023-02-11T01:11:22.304Z,23.60
2023-02-11T01:12:22.288Z,22.20
2023-02-11T01:13:22.248Z,23.10
2023-02-11T01:14:22.266Z,23.50
2023-02-11T01:15:22.242Z,24.20
2023-02-11T01:16:22.334Z,24.20
2023-02-11T01:17:22.237Z,24.70
2023-02-11T01:18:22.222Z,24.10
2023-02-11T01:19:22.194Z,22.90
2023-02-11T01:20:22.168Z,24.60
2023-02-11T01:21:22.166Z,24.40
2023-02-11T01:22:22.177Z,22.90
2023-02-11T01:23:22.152Z,22.90
2023-02-11T01:24:22.128Z,23.80
2023-02-11T01:25:22.134Z,23.30
2023-02-11T01:26:22.098Z,23.10
2023-02-11T01:27:22.077Z,23.70
2023-02-11T01:28:22.101Z,23.20
2023-02-11T01:29:22.069Z,23.20
2023-02-11T01:30:22.040Z,23.00
2023-02-11T01:31:22.139Z,22.60
2023-02-11T01:32:22.079Z,21.80
2023-02-11T01:33:21.986Z,22.60
2023-02-11T01:34:22.020Z,23.50
2023-02-11T01:35:21.974Z,23.20
2023-02-11T01:36:21.966Z,22.00
2023-02-11T01:37:21.946Z,23.00
2023-02-11T01:38:21.929Z,22.30
2023-02-11T01:39:22.680Z,22.20
2023-02-11T01:40:22.892Z,21.80
2023-02-11T01:41:21.880Z,21.70
2023-02-11T01:42:21.882Z,22.30
2023-02-11T01:43:21.857Z,20.80
2023-02-11T01:44:21.872Z,22.00
2023-02-11T01:45:21.834Z,21.40
2023-02-11T01:46:21.880Z,21.10
2023-02-11T01:47:21.801Z,21.10
2023-02-11T01:48:21.793Z,21.00
2023-02-11T01:49:21.844Z,21.80
2023-02-11T01:50:21.797Z,20.20
2023-02-11T01:51:21.748Z,21.80
2023-02-11T01:52:21.740Z,20.60
2023-02-11T01:53:21.726Z,20.90
2023-02-11T01:54:21.727Z,20.70
2023-02-11T01:55:21.711Z,20.50
2023-02-11T01:56:21.708Z,21.30
2023-02-11T01:57:21.679Z,19.80
2023-02-11T01:58:21.687Z,20.90
2023-02-11T01:59:21.652Z,19.60
2023-02-11T02:00:21.629Z,20.80
2023-02-11T02:01:21.625Z,19.00
2023-02-11T02:02:21.599Z,18.90
2023-02-11T02:03:21.595Z,19.40
2023-02-11T02:04:21.580Z,20.70
2023-02-11T02:05:21.594Z,20.10
2023-02-11T02:06:21.555Z,20.10
2023-02-11T02:07:21.531Z,19.30
2023-02-11T02:08:21.522Z,19.20
2023-02-11T02:09:21.499Z,18.00
2023-02-11T02:10:21.510Z,19.60
2023-02-11T02:11:21.492Z,18.90
2023-02-11T02:12:21.485Z,19.50
2023-02-11T02:13:21.455Z,19.10
2023-02-11T02:14:21.462Z,18.20
2023-02-11T02:15:21.449Z,18.80
2023-02-11T02:16:21.458Z,19.00
2023-02-11T02:17:21.411Z,18.20
2023-02-11T02:18:21.393Z,17.40
2023-02-11T02:19:21.397Z,18.50
2023-02-11T02:20:21.369Z,18.90
2023-02-11T02:21:21.335Z,18.00
2023-02-11T02:22:21.335Z,19.40
2023-02-11T02:23:21.309Z,19.60
2023-02-11T02:24:21.296Z,17.50
2023-02-11T02:25:21.283Z,17.90
2023-02-11T02:26:21.290Z,19.10
2023-02-11T02:27:21.258Z,18.90
2023-02-11T02:28:21.282Z,19.00
2023-02-11T02:29:21.239Z,18.40
2023-02-11T02:30:21.312Z,17.40
2023-02-11T02:31:21.259Z,18.30
2023-02-11T02:32:21.192Z,17.80
2023-02-11T02:33:22.998Z,18.80
2023-02-11T02:34:21.172Z,17.70
2023-02-11T02:35:21.165Z,17.30
2023-02-11T02:36:21.150Z,18.40
2023-02-11T02:37:21.145Z,17.30
2023-02-11T02:38:21.125Z,18.10
2023-02-11T02:39:21.108Z,17.70
2023-02-11T02:40:21.108Z,17.50
2023-02-11T02:41:21.093Z,18.20
2023-02-11T02:42:21.077Z,17.80
2023-02-11T02:43:21.061Z,17.10
2023-02-11T02:44:21.026Z,18.30
2023-02-11T02:45:21.067Z,17.90
2023-02-11T02:46:21.112Z,17.70
2023-02-11T02:47:21.051Z,17.80
2023-02-11T02:48:20.982Z,17.80
2023-02-11T02:49:20.977Z,18.10
2023-02-11T02:50:21.002Z,17.60
2023-02-11T02:51:20.943Z,17.10
2023-02-11T02:52:20.939Z,18.10
2023-02-11T02:53:20.910Z,17.70
2023-02-11T02:54:20.905Z,17.60
2023-02-11T02:55:20.906Z,17.20
2023-02-11T02:56:20.882Z,18.00
2023-02-11T02:57:20.859Z,17.30
2023-02-11T02:58:20.843Z,17.80
2023-02-11T02:59:20.848Z,17.30
2023-02-11T03:00:20.865Z,18.70
2023-02-11T03:01:20.830Z,17.50
2023-02-11T03:02:20.831Z,17.10
2023-02-11T03:03:20.851Z,18.10
2023-02-11T03:04:20.778Z,17.40
2023-02-11T03:05:20.763Z,16.80
2023-02-11T03:06:20.769Z,17.50
2023-02-11T03:07:20.723Z,18.10
2023-02-11T03:08:20.717Z,17.80
2023-02-11T03:09:20.710Z,18.20
2023-02-11T03:10:20.722Z,17.90
2023-02-11T03:11:20.700Z,17.30
2023-02-11T03:12:20.650Z,16.60
2023-02-11T03:13:20.645Z,17.60
2023-02-11T03:14:20.638Z,16.50
2023-02-11T03:15:20.637Z,18.50
2023-02-11T03:16:20.632Z,18.00
2023-02-11T03:17:20.585Z,17.50
2023-02-11T03:18:20.600Z,17.60
2023-02-11T03:19:20.582Z,18.40
2023-02-11T03:20:20.585Z,17.90
2023-02-11T03:21:20.600Z,18.60
2023-02-11T03:22:20.535Z,18.30
2023-02-11T03:23:20.509Z,17.90
2023-02-11T03:24:41.503Z,17.60
2023-02-11T03:25:20.518Z,18.00
2023-02-11T03:26:20.479Z,19.70
2023-02-11T03:27:21.543Z,18.70
2023-02-11T03:28:20.533Z,18.80
2023-02-11T03:37:10.677Z,20.00
2023-02-11T03:37:32.196Z,18.80
2023-02-11T03:38:55.397Z,19.90
2023-02-11T03:39:32.195Z,20.00
2023-02-11T03:40:35.660Z,18.80
2023-02-11T03:41:32.152Z,19.70
2023-02-11T03:42:54.185Z,19.20
2023-02-11T03:43:32.125Z,19.80
2023-02-11T03:44:32.118Z,18.20
2023-02-11T03:45:32.170Z,19.90
2023-02-11T03:46:32.085Z,19.10
2023-02-11T03:47:32.070Z,20.30
2023-02-11T03:48:32.064Z,19.80
2023-02-11T03:49:32.060Z,19.90
2023-02-11T03:50:32.068Z,20.00
2023-02-11T03:51:32.044Z,20.70
2023-02-11T03:52:32.008Z,19.40
2023-02-11T03:53:31.995Z,19.40
2023-02-11T03:54:32.008Z,19.30
2023-02-11T03:55:31.967Z,21.00
2023-02-11T03:56:31.956Z,19.20
2023-02-11T03:57:31.935Z,19.80
2023-02-11T03:58:31.934Z,19.30
2023-02-11T03:59:31.911Z,20.30
2023-02-11T04:00:31.987Z,20.20
2023-02-11T04:01:31.921Z,20.60
2023-02-11T04:02:31.890Z,20.40
2023-02-11T04:03:31.955Z,20.10
2023-02-11T04:04:31.854Z,20.20
2023-02-11T04:05:31.850Z,20.20
2023-02-11T04:06:31.830Z,20.00
2023-02-11T04:07:31.825Z,20.00
2023-02-11T04:08:31.821Z,20.40
2023-02-11T04:09:31.787Z,20.70
2023-02-11T04:10:31.797Z,20.20
2023-02-11T04:11:31.776Z,20.80
2023-02-11T04:12:31.755Z,19.50
2023-02-11T04:13:31.723Z,20.40
2023-02-11T04:14:31.733Z,19.40
2023-02-11T04:15:31.721Z,20.10
2023-02-11T04:16:31.781Z,21.30
2023-02-11T04:17:31.677Z,20.50
2023-02-11T04:18:31.664Z,19.30
2023-02-11T04:19:31.681Z,20.80
2023-02-11T04:20:31.674Z,20.10
2023-02-11T04:21:31.643Z,21.90
2023-02-11T04:22:31.634Z,21.00
2023-02-11T04:23:31.595Z,21.00
2023-02-11T04:24:31.629Z,20.60
2023-02-11T04:25:31.593Z,20.20
2023-02-11T04:26:31.580Z,19.90
2023-02-11T04:27:31.547Z,20.20
2023-02-11T04:28:31.634Z,19.70
2023-02-11T04:29:31.541Z,20.10
2023-02-11T04:30:31.551Z,19.40
2023-02-11T04:31:31.528Z,19.40
2023-02-11T04:32:31.486Z,19.20
2023-02-11T04:33:31.503Z,20.00
2023-02-11T04:34:31.454Z,19.90
2023-02-11T04:35:31.445Z,19.70
2023-02-11T04:36:31.687Z,20.30
2023-02-11T04:37:31.446Z,19.50
2023-02-11T04:38:31.402Z,20.10
2023-02-11T04:39:31.395Z,18.90
2023-02-11T04:40:31.396Z,19.90
2023-02-11T04:50:21.738Z,19.30
2023-02-11T04:51:21.503Z,20.00
2023-02-11T04:52:21.490Z,19.50
2023-02-11T04:53:21.480Z,19.90
2023-02-11T04:54:21.468Z,19.40
2023-02-11T04:55:21.460Z,19.50
2023-02-11T04:56:21.462Z,19.60
2023-02-11T04:57:21.441Z,19.40
2023-02-11T04:58:21.423Z,19.70
2023-02-11T04:59:21.427Z,19.20
2023-02-11T05:00:21.384Z,19.40
2023-02-11T05:01:21.427Z,19.50
2023-02-11T05:50:54.279Z,21.30
2023-02-11T05:51:55.267Z,21.60
2023-02-11T05:52:55.253Z,21.30
2023-02-11T05:53:55.240Z,21.60
2023-02-11T05:54:55.216Z,21.10
2023-02-11T05:55:55.206Z,21.20
2023-02-11T05:56:55.197Z,21.20
2023-02-11T05:57:55.210Z,21.20
2023-02-11T05:58:55.169Z,21.40
2023-02-11T05:59:55.151Z,20.60
2023-02-11T06:00:55.166Z,21.50
2023-02-11T06:01:55.138Z,21.50
2023-02-11T06:02:55.198Z,21.80
2023-02-11T06:03:55.155Z,21.70
2023-02-11T06:04:55.138Z,21.90
2023-02-11T06:05:55.103Z,21.20
2023-02-11T06:06:55.100Z,21.20
2023-02-11T06:13:34.147Z,22.60
2023-02-11T06:14:35.147Z,22.00
2023-02-11T06:15:35.099Z,21.40
2023-02-11T06:16:35.088Z,22.30
2023-02-11T06:17:35.124Z,22.20
2023-02-11T06:18:35.068Z,22.30
2023-02-11T06:19:35.084Z,22.60
2023-02-11T06:20:35.069Z,21.40
2023-02-11T06:21:43.286Z,22.10
2023-02-11T06:22:35.264Z,21.70
2023-02-11T06:23:35.008Z,23.10
2023-02-11T06:24:58.581Z,22.20
2023-02-11T06:25:34.986Z,21.90
2023-02-11T06:26:34.985Z,22.30
2023-02-11T06:27:34.991Z,22.30
2023-02-11T06:28:35.088Z,22.50
2023-02-11T06:29:34.931Z,23.30
2023-02-11T06:30:34.908Z,21.70
2023-02-11T06:31:35.057Z,22.10
2023-02-11T06:32:43.940Z,22.90
2023-02-11T06:33:34.914Z,24.20
2023-02-11T06:34:34.869Z,23.20
2023-02-11T06:35:34.855Z,23.60
2023-02-11T06:36:34.863Z,23.20
2023-02-11T06:37:34.831Z,24.20
2023-02-11T06:38:34.814Z,23.60
2023-02-11T06:39:34.804Z,23.10
2023-02-11T06:42:08.940Z,23.50
2023-02-11T06:43:09.545Z,22.90
2023-02-11T06:44:09.529Z,24.70
2023-02-11T06:45:09.576Z,24.20
2023-02-11T06:46:09.537Z,24.40
2023-02-11T06:47:09.527Z,24.70
2023-02-11T06:48:09.478Z,24.40
2023-02-11T06:49:09.476Z,24.80
2023-02-11T06:50:09.506Z,24.80
2023-02-11T06:51:09.440Z,24.40
2023-02-11T06:52:09.427Z,24.20
2023-02-11T06:53:09.417Z,25.80
2023-02-11T06:54:09.420Z,24.80
2023-02-11T06:55:09.394Z,23.80
2023-02-11T06:56:09.402Z,24.40
2023-02-11T06:57:09.361Z,25.00
2023-02-11T06:58:09.333Z,24.70
2023-02-11T06:59:09.322Z,24.00
2023-02-11T07:00:09.332Z,25.40
2023-02-11T07:01:09.322Z,24.50
2023-02-11T07:02:09.317Z,24.70
2023-02-11T07:03:09.298Z,24.40
2023-02-11T07:04:09.270Z,24.70
2023-02-11T07:05:09.256Z,25.60
2023-02-11T07:06:09.239Z,25.30
2023-02-11T07:07:09.226Z,25.70
2023-02-11T07:08:09.202Z,25.60
2023-02-11T07:09:09.248Z,25.40
2023-02-11T07:10:09.175Z,25.10
2023-02-11T07:11:09.180Z,26.70
2023-02-11T07:12:09.159Z,25.50
2023-02-11T07:13:09.143Z,26.70
2023-02-11T07:14:09.134Z,26.50
2023-02-11T07:15:09.120Z,26.00
2023-02-11T07:16:09.120Z,25.80
2023-02-11T07:17:09.107Z,26.10
2023-02-11T07:18:09.099Z,26.00
2023-02-11T07:19:09.070Z,24.80
2023-02-11T07:20:09.028Z,25.70
2023-02-11T07:21:09.035Z,26.30
2023-02-11T07:22:09.025Z,26.40
2023-02-11T07:23:09.010Z,26.90
2023-02-11T07:24:11.057Z,26.70
2023-02-11T07:25:09.018Z,26.80
2023-02-11T07:26:08.963Z,28.00
2023-02-11T07:27:08.957Z,25.80
2023-02-11T07:28:09.003Z,26.30
2023-02-11T07:29:08.974Z,26.80
2023-02-11T07:30:08.922Z,27.60
2023-02-11T07:31:09.019Z,27.50
2023-02-11T07:32:08.936Z,26.80
2023-02-11T07:33:08.876Z,26.90
2023-02-11T07:34:08.866Z,27.60
2023-02-11T07:35:08.839Z,26.60
2023-02-11T07:36:08.831Z,27.40
2023-02-11T07:37:08.815Z,28.00
2023-02-11T07:38:08.803Z,28.10
2023-02-11T07:39:08.792Z,28.20
2023-02-11T07:40:08.842Z,27.30
2023-02-11T07:41:08.762Z,26.60
2023-02-11T07:42:08.746Z,26.80
2023-02-11T07:43:08.736Z,26.50
2023-02-11T07:44:08.731Z,26.20
2023-02-11T07:45:08.751Z,26.30
2023-02-11T07:46:08.838Z,26.70
2023-02-11T07:47:08.817Z,26.20
2023-02-11T07:48:49.022Z,26.80
2023-02-11T07:49:08.673Z,26.80
2023-02-11T07:50:08.634Z,27.50
2023-02-11T07:51:08.631Z,26.40
2023-02-11T07:52:08.619Z,26.40
2023-02-11T07:53:08.621Z,26.80
2023-02-11T07:54:08.641Z,27.00
2023-02-11T07:55:09.693Z,26.70
2023-02-11T07:56:08.682Z,26.70
2023-02-11T07:57:08.560Z,25.40
2023-02-11T07:58:08.535Z,26.20
2023-02-11T07:59:08.522Z,27.20
2023-02-11T08:00:08.500Z,27.40
2023-02-11T08:01:08.567Z,27.50
2023-02-11T08:02:08.574Z,25.20
2023-02-11T08:03:08.499Z,28.00
2023-02-11T08:04:08.462Z,27.60
2023-02-11T08:05:08.492Z,28.20
2023-02-11T08:06:08.463Z,28.60
2023-02-11T08:07:08.413Z,28.30
2023-02-11T08:08:08.494Z,26.10
2023-02-11T08:09:08.396Z,26.70
2023-02-11T08:10:08.402Z,25.50
2023-02-11T08:11:08.401Z,27.10
2023-02-11T08:12:08.374Z,28.60
2023-02-11T08:13:08.361Z,28.10
2023-02-11T08:14:08.332Z,27.60
2023-02-11T08:15:08.332Z,28.30
2023-02-11T08:16:08.489Z,27.90
2023-02-11T08:17:08.307Z,27.20
2023-02-11T08:18:08.266Z,27.20
2023-02-11T08:19:08.300Z,28.60
2023-02-11T08:20:08.248Z,26.90
2023-02-11T08:21:08.293Z,28.50
2023-02-11T08:22:08.220Z,27.70
2023-02-11T08:23:08.235Z,27.30
2023-02-11T08:24:08.201Z,28.10
2023-02-11T08:25:08.165Z,26.90
2023-02-11T08:26:08.173Z,26.30
2023-02-11T08:27:08.145Z,27.10
2023-02-11T08:28:08.195Z,27.50
2023-02-11T08:29:08.143Z,27.00
2023-02-11T08:30:08.083Z,27.00
2023-02-11T08:31:08.115Z,26.90
2023-02-11T08:32:08.142Z,26.30
2023-02-11T08:33:08.116Z,26.10
2023-02-11T08:34:08.060Z,26.10
2023-02-11T08:35:08.096Z,27.50
2023-02-11T08:36:08.001Z,26.60
2023-02-11T08:37:08.001Z,27.00
2023-02-11T08:38:08.039Z,27.50
2023-02-11T08:39:18.712Z,26.90
2023-02-11T08:40:08.081Z,26.70
2023-02-11T08:41:07.977Z,27.50
2023-02-11T08:42:07.936Z,27.00
2023-02-11T08:43:08.223Z,27.70
2023-02-11T08:44:07.955Z,26.20
2023-02-11T09:13:38.071Z,26.20
2023-02-11T09:48:42.748Z,25.60
2023-02-11T09:49:43.734Z,25.90
2023-02-11T09:50:43.757Z,26.40
2023-02-11T09:51:43.729Z,25.10
2023-02-11T09:52:43.687Z,26.80
2023-02-11T09:53:43.675Z,26.00
2023-02-11T09:54:43.716Z,24.40
2023-02-11T09:55:43.658Z,26.80
2023-02-11T09:56:43.717Z,25.70
2023-02-11T09:57:43.622Z,24.80
2023-02-11T09:58:43.679Z,25.70
2023-02-11T09:59:43.639Z,26.70
2023-02-11T10:00:43.670Z,26.60
2023-02-11T10:01:43.627Z,24.90
2023-02-11T10:02:43.554Z,25.60
2023-02-11T10:03:43.552Z,25.20
2023-02-11T10:04:43.611Z,25.80
2023-02-11T10:05:43.508Z,26.30
2023-02-11T10:06:43.506Z,26.40
2023-02-11T10:07:43.488Z,27.10
2023-02-11T10:08:43.473Z,26.30
2023-02-11T10:09:43.519Z,26.40
2023-02-11T10:10:43.454Z,26.00
2023-02-11T10:11:43.459Z,25.90
2023-02-11T10:12:43.470Z,25.00
2023-02-11T10:13:43.414Z,25.80
2023-02-11T10:14:43.430Z,25.70
2023-02-11T10:15:43.450Z,26.60
2023-02-11T10:16:43.393Z,27.30
2023-02-11T10:17:43.350Z,26.10
2023-02-11T10:18:43.401Z,26.90
2023-02-11T10:19:43.347Z,27.10
2023-02-11T10:20:43.325Z,26.10
2023-02-11T10:21:43.332Z,25.40
2023-02-11T10:22:43.292Z,26.10
2023-02-11T10:23:43.278Z,26.60
2023-02-11T10:24:43.326Z,26.40
2023-02-11T10:25:45.281Z,27.50
2023-02-11T10:26:43.266Z,26.30
2023-02-11T10:27:43.232Z,27.20
2023-02-11T10:28:43.396Z,26.70
2023-02-11T10:29:43.226Z,25.50
2023-02-11T10:30:43.315Z,27.20
2023-02-11T10:31:43.200Z,27.50
2023-02-11T10:32:43.211Z,27.60
2023-02-11T10:33:43.168Z,26.60
2023-02-11T10:34:43.140Z,27.60
2023-02-11T10:35:43.152Z,27.20
2023-02-11T10:36:43.101Z,27.40
2023-02-11T10:37:44.627Z,27.30
2023-02-11T10:38:43.072Z,28.20
2023-02-11T10:39:43.108Z,27.00
2023-02-11T10:40:43.070Z,27.30
2023-02-11T10:41:43.050Z,27.20
2023-02-11T10:42:43.022Z,27.70
2023-02-11T10:43:43.046Z,28.00
2023-02-11T10:44:43.067Z,26.50
2023-02-11T10:45:42.993Z,28.20
2023-02-11T10:46:43.044Z,27.70
2023-02-11T10:47:42.955Z,26.50
2023-02-11T10:48:43.168Z,27.80
2023-02-11T10:49:42.936Z,26.10
2023-02-11T10:50:42.917Z,27.40
2023-02-11T10:51:42.931Z,27.80
2023-02-11T10:52:42.904Z,26.50
2023-02-11T10:53:42.872Z,26.60
2023-02-11T10:54:42.870Z,27.80
2023-02-11T10:55:43.256Z,28.10
2023-02-11T10:56:42.838Z,27.30
2023-02-11T10:57:42.827Z,26.80
2023-02-11T10:58:42.971Z,28.10
2023-02-11T10:59:42.848Z,27.90
2023-02-11T11:00:42.825Z,27.40
2023-02-11T11:01:42.855Z,27.20
2023-02-11T11:02:42.758Z,26.90
2023-02-11T11:03:42.763Z,25.70
2023-02-11T11:04:42.810Z,28.50
2023-02-11T11:05:42.812Z,26.80
2023-02-11T11:06:42.714Z,25.60
2023-02-11T11:07:42.725Z,27.00
2023-02-11T11:08:42.733Z,26.30
2023-02-11T11:09:42.655Z,26.50
2023-02-11T11:10:42.648Z,27.20
2023-02-11T11:11:42.674Z,26.90
2023-02-11T11:12:42.640Z,27.50
2023-02-11T11:13:42.627Z,25.80
2023-02-11T11:14:42.689Z,26.20
2023-02-11T11:15:42.614Z,28.20
2023-02-11T11:16:42.580Z,27.30
2023-02-11T11:17:42.618Z,27.90
2023-02-11T11:18:42.591Z,27.20
2023-02-11T11:19:42.584Z,27.40
2023-02-11T11:20:42.545Z,26.80
2023-02-11T11:21:42.532Z,27.00
2023-02-11T11:22:42.477Z,27.10
2023-02-11T11:23:42.476Z,27.00
2023-02-11T11:24:42.515Z,26.90
2023-02-11T11:25:42.470Z,27.00
2023-02-11T11:26:42.443Z,28.60
2023-02-11T11:27:42.435Z,28.00
2023-02-11T11:28:42.424Z,27.00
2023-02-11T11:29:42.401Z,26.80
2023-02-11T11:30:42.417Z,26.40
2023-02-11T11:31:42.453Z,27.10
2023-02-11T11:32:42.359Z,26.70
2023-02-11T11:33:42.338Z,26.60
2023-02-11T11:34:42.440Z,25.80
2023-02-11T11:35:42.320Z,28.00
2023-02-11T11:36:42.336Z,26.30
2023-02-11T11:37:42.338Z,26.30
2023-02-11T11:38:42.273Z,25.80
2023-02-11T11:39:42.327Z,25.30
2023-02-11T11:40:42.335Z,26.60
2023-02-11T11:41:42.283Z,25.80
2023-02-11T11:42:42.229Z,25.70
2023-02-11T11:43:42.219Z,25.20
2023-02-11T11:44:42.186Z,26.40
2023-02-11T11:45:42.304Z,25.90
2023-02-11T11:46:42.281Z,26.40
2023-02-11T11:47:42.188Z,26.40
2023-02-11T11:48:42.132Z,26.20
2023-02-11T11:49:42.154Z,26.00
2023-02-11T11:50:42.108Z,26.60
2023-02-11T11:51:42.107Z,25.90
2023-02-11T11:52:42.089Z,26.30
2023-02-11T11:53:42.067Z,25.70
2023-02-11T11:54:42.042Z,26.00
2023-02-11T11:55:42.048Z,26.40
2023-02-11T11:56:42.121Z,26.50
2023-02-11T11:57:42.053Z,25.50
2023-02-11T11:58:42.105Z,26.60
2023-02-11T11:59:41.979Z,26.10
2023-02-11T12:00:42.015Z,26.70
2023-02-11T12:01:41.978Z,27.10
2023-02-11T12:02:42.037Z,26.50
2023-02-11T12:03:41.964Z,26.80
2023-02-11T12:04:41.926Z,26.20
2023-02-11T12:05:41.929Z,26.30
2023-02-11T12:06:41.886Z,26.60
2023-02-11T12:07:41.869Z,27.00
2023-02-11T12:08:41.850Z,25.30
2023-02-11T12:09:41.901Z,25.50
2023-02-11T12:10:41.866Z,26.00
2023-02-11T12:11:41.825Z,25.80
2023-02-11T12:12:41.802Z,25.60
2023-02-11T12:13:41.801Z,26.20
2023-02-11T12:14:41.813Z,25.60
2023-02-11T12:15:41.757Z,25.40
2023-02-11T12:16:41.788Z,25.40
2023-02-11T12:17:41.796Z,26.10
2023-02-11T12:18:41.719Z,26.50
2023-02-11T12:19:41.709Z,26.00
2023-02-11T12:20:41.693Z,25.70
2023-02-11T12:21:41.711Z,23.60
2023-02-11T12:22:41.717Z,25.90
2023-02-11T12:23:41.691Z,27.20
2023-02-11T12:24:41.660Z,26.60
2023-02-11T12:25:41.641Z,26.70
2023-02-11T12:26:41.683Z,25.30
2023-02-11T12:27:41.654Z,25.50
2023-02-11T12:28:41.789Z,25.20
2023-02-11T12:29:41.596Z,26.40
2023-02-11T12:30:41.583Z,26.40
2023-02-11T12:31:41.619Z,25.70
2023-02-11T12:32:41.553Z,25.20
2023-02-11T12:33:41.527Z,26.40
2023-02-11T12:34:41.555Z,24.40
2023-02-11T12:35:41.493Z,25.60
2023-02-11T12:36:41.497Z,25.60
2023-02-11T12:37:41.488Z,25.30
2023-02-11T12:38:41.512Z,24.00
2023-02-11T12:39:41.485Z,25.90
2023-02-11T12:40:41.433Z,25.20
2023-02-11T12:41:41.441Z,25.60
2023-02-11T12:42:41.406Z,25.30
2023-02-11T12:43:41.393Z,25.40
2023-02-11T12:44:41.427Z,25.20
2023-02-11T12:45:41.431Z,25.10
2023-02-11T12:46:41.368Z,26.80
2023-02-11T12:47:41.345Z,24.60
2023-02-11T12:48:41.371Z,24.20
2023-02-11T12:49:41.307Z,24.20
2023-02-11T12:50:41.320Z,24.30
2023-02-11T12:51:41.296Z,25.70
2023-02-11T12:52:41.274Z,25.50
2023-02-11T12:53:41.267Z,25.00
2023-02-11T12:54:41.238Z,24.40
2023-02-11T12:55:41.242Z,25.50
2023-02-11T12:56:41.227Z,23.10
2023-02-11T12:57:41.212Z,23.90
2023-02-11T12:58:45.441Z,25.00
2023-02-11T12:59:41.194Z,24.10
2023-02-11T13:00:41.260Z,25.50
2023-02-11T13:01:41.239Z,25.30
2023-02-11T13:02:41.230Z,24.90
2023-02-11T13:03:41.124Z,23.90
2023-02-11T13:04:41.147Z,24.30
2023-02-11T13:05:41.118Z,23.70
2023-02-11T13:06:41.146Z,23.40
2023-02-11T13:07:41.125Z,23.70
2023-02-11T13:08:41.061Z,23.30
2023-02-11T13:09:41.065Z,25.20
2023-02-11T13:10:41.057Z,25.70
2023-02-11T13:11:41.040Z,24.20
2023-02-11T13:12:41.134Z,22.90
2023-02-11T13:13:40.993Z,24.30
2023-02-11T13:14:40.987Z,23.40
2023-02-11T13:15:40.969Z,24.60
2023-02-11T13:16:41.032Z,23.70
2023-02-11T13:17:41.026Z,25.20
2023-02-11T13:18:40.919Z,23.00
2023-02-11T13:19:40.913Z,24.70
2023-02-11T13:20:40.916Z,23.20
2023-02-11T13:21:40.922Z,24.10
2023-02-11T13:23:18.347Z,24.00
2023-02-11T13:23:40.865Z,23.60
2023-02-11T13:40:08.935Z,24.90
2023-02-11T13:41:06.562Z,25.30
2023-02-11T13:42:06.543Z,25.00
2023-02-11T13:43:06.529Z,24.40
2023-02-11T13:46:35.527Z,23.90
2023-02-11T13:47:38.630Z,23.70
2023-02-11T13:48:36.492Z,24.20
2023-02-11T13:54:12.298Z,24.30
2023-02-11T13:54:40.132Z,23.30
2023-02-11T13:56:03.236Z,24.40
2023-02-11T13:56:40.105Z,25.80
2023-02-11T13:57:50.684Z,24.90
2023-02-11T13:58:40.114Z,25.20
2023-02-11T13:59:40.540Z,24.50
2023-02-11T14:02:06.400Z,24.10
2023-02-11T14:02:53.235Z,24.90
2023-02-11T14:03:53.202Z,25.20
2023-02-11T14:04:53.195Z,24.40
2023-02-11T14:05:53.140Z,23.60
2023-02-11T14:06:53.132Z,25.00
2023-02-11T14:07:53.122Z,24.20
2023-02-11T14:08:53.131Z,24.60
2023-02-11T14:09:53.147Z,23.30
2023-02-11T14:10:53.412Z,23.80
2023-02-11T14:11:55.154Z,25.20
2023-02-11T14:12:53.147Z,25.20
2023-02-11T14:13:53.056Z,25.30
2023-02-11T14:14:53.034Z,23.90
2023-02-11T14:15:53.053Z,23.20
2023-02-11T14:16:53.049Z,24.10
2023-02-11T14:17:53.042Z,24.30
2023-02-11T14:18:53.018Z,25.50
2023-02-11T14:19:52.976Z,24.20
2023-02-11T14:20:53.213Z,23.80
2023-02-11T14:21:52.929Z,23.50
2023-02-11T14:22:52.918Z,24.90
2023-02-11T14:23:52.910Z,24.20
2023-02-11T14:24:52.899Z,24.70
2023-02-11T14:25:52.883Z,24.10
2023-02-11T14:26:52.954Z,24.20
2023-02-11T14:27:52.855Z,24.10
2023-02-11T14:28:52.863Z,24.70
2023-02-11T14:29:52.817Z,24.40
2023-02-11T14:30:53.212Z,24.50
2023-02-11T14:31:52.950Z,23.80
2023-02-11T14:32:52.829Z,23.90
2023-02-11T14:33:52.783Z,24.70
2023-02-11T14:34:52.800Z,22.60
2023-02-11T14:35:53.169Z,24.60
2023-02-11T14:36:52.818Z,24.60
2023-02-11T14:37:52.752Z,24.80
2023-02-11T14:38:52.738Z,23.50
2023-02-11T14:39:52.728Z,25.10
2023-02-11T14:40:53.020Z,24.00
2023-02-11T14:41:52.693Z,23.80
2023-02-11T14:42:52.709Z,24.80
2023-02-11T14:43:52.648Z,23.80
2023-02-11T14:44:52.637Z,25.40
2023-02-11T14:45:52.655Z,24.60
2023-02-11T14:46:52.589Z,25.40
2023-02-11T14:47:52.582Z,24.20
2023-02-11T14:48:52.663Z,24.10
2023-02-11T14:49:52.551Z,24.60
2023-02-11T14:50:52.879Z,23.00
2023-02-11T14:51:52.565Z,23.80
2023-02-11T14:52:52.542Z,24.30
2023-02-11T14:53:52.716Z,25.80
2023-02-11T14:54:52.519Z,25.00
2023-02-11T14:55:52.531Z,24.30
2023-02-11T14:56:52.496Z,24.60
2023-02-11T14:57:52.451Z,24.20
2023-02-11T14:58:52.445Z,24.80
2023-02-11T14:59:52.499Z,24.60
2023-02-11T15:00:52.752Z,25.00
2023-02-11T15:01:52.499Z,25.80
2023-02-11T15:02:52.401Z,26.30
2023-02-11T15:03:52.355Z,24.90
2023-02-11T15:04:52.370Z,26.00
2023-02-11T15:05:52.345Z,25.10
2023-02-11T15:06:52.322Z,25.70
2023-02-11T15:07:52.465Z,27.00
2023-02-11T15:08:52.303Z,25.70
2023-02-11T15:09:52.328Z,25.20
2023-02-11T15:10:52.514Z,25.30
2023-02-11T15:11:52.249Z,25.30
2023-02-11T15:12:52.242Z,25.90
2023-02-11T15:13:55.070Z,26.50
2023-02-11T15:14:52.584Z,25.30
2023-02-11T15:15:52.301Z,24.70
2023-02-11T15:16:52.234Z,26.60
2023-02-11T15:17:52.179Z,26.60
2023-02-11T15:18:52.239Z,24.50
2023-02-11T15:19:52.142Z,25.10
2023-02-11T15:20:52.598Z,25.30
2023-02-11T15:21:52.117Z,25.70
2023-02-11T15:22:52.105Z,25.40
2023-02-11T15:23:52.094Z,24.90
2023-02-11T15:24:52.118Z,25.50
2023-02-11T15:25:52.106Z,24.60
2023-02-11T15:26:52.076Z,25.00
2023-02-11T15:27:52.042Z,24.90
2023-02-11T15:28:52.269Z,24.90
2023-02-11T15:29:52.082Z,25.40